sensor_id;sensor_type;location;lat;lon;timestamp;P1;durP1;ratioP1;P2;durP2;ratioP2
30299;SDS011;17110;52.602;12.998;2022-07-29T00:00:45;6.33;;;3.80;;
30299;SDS011;17110;52.602;12.998;2022-07-29T00:03:11;5.60;;;3.80;;
30299;SDS011;17110;52.602;12.998;2022-07-29T00:05:38;7.22;;;3.78;;
30299;SDS011;17110;52.602;12.998;2022-07-29T00:08:05;4.40;;;3.50;;
30299;SDS011;17110;52.602;12.998;2022-07-29T00:10:32;6.07;;;3.92;;
30299;SDS011;17110;52.602;12.998;2022-07-29T00:12:57;8.80;;;4.00;;
30299;SDS011;17110;52.602;12.998;2022-07-29T00:15:23;7.38;;;4.03;;
30299;SDS011;17110;52.602;12.998;2022-07-29T00:17:49;18.33;;;4.95;;
30299;SDS011;17110;52.602;12.998;2022-07-29T00:20:14;8.93;;;4.30;;
30299;SDS011;17110;52.602;12.998;2022-07-29T00:22:40;7.80;;;4.00;;
30299;SDS011;17110;52.602;12.998;2022-07-29T00:25:06;7.63;;;4.10;;
30299;SDS011;17110;52.602;12.998;2022-07-29T00:27:33;7.33;;;4.20;;
30299;SDS011;17110;52.602;12.998;2022-07-29T00:29:59;6.80;;;4.53;;
30299;SDS011;17110;52.602;12.998;2022-07-29T00:32:25;9.43;;;4.15;;
30299;SDS011;17110;52.602;12.998;2022-07-29T00:34:51;6.93;;;4.38;;
30299;SDS011;17110;52.602;12.998;2022-07-29T00:37:35;7.88;;;4.40;;
30299;SDS011;17110;52.602;12.998;2022-07-29T00:40:02;5.60;;;4.22;;
30299;SDS011;17110;52.602;12.998;2022-07-29T00:42:28;5.72;;;4.20;;
30299;SDS011;17110;52.602;12.998;2022-07-29T00:44:53;7.88;;;4.22;;
30299;SDS011;17110;52.602;12.998;2022-07-29T00:47:19;6.87;;;4.33;;
30299;SDS011;17110;52.602;12.998;2022-07-29T00:49:45;6.07;;;4.40;;
30299;SDS011;17110;52.602;12.998;2022-07-29T00:52:11;8.00;;;4.90;;
30299;SDS011;17110;52.602;12.998;2022-07-29T00:54:38;7.68;;;4.20;;
30299;SDS011;17110;52.602;12.998;2022-07-29T00:57:05;6.32;;;4.32;;
30299;SDS011;17110;52.602;12.998;2022-07-29T00:59:32;6.55;;;4.32;;
30299;SDS011;17110;52.602;12.998;2022-07-29T01:01:59;8.00;;;4.85;;
30299;SDS011;17110;52.602;12.998;2022-07-29T01:04:24;8.95;;;4.63;;
30299;SDS011;17110;52.602;12.998;2022-07-29T01:06:50;8.68;;;4.85;;
30299;SDS011;17110;52.602;12.998;2022-07-29T01:09:18;7.82;;;4.35;;
30299;SDS011;17110;52.602;12.998;2022-07-29T01:11:44;7.80;;;4.50;;
30299;SDS011;17110;52.602;12.998;2022-07-29T01:14:12;5.03;;;4.20;;
30299;SDS011;17110;52.602;12.998;2022-07-29T01:16:45;6.97;;;4.70;;
30299;SDS011;17110;52.602;12.998;2022-07-29T01:30:17;8.07;;;4.60;;
30299;SDS011;17110;52.602;12.998;2022-07-29T01:32:43;6.70;;;4.20;;
30299;SDS011;17110;52.602;12.998;2022-07-29T01:35:17;5.22;;;4.00;;
30299;SDS011;17110;52.602;12.998;2022-07-29T01:40:31;6.78;;;4.18;;
30299;SDS011;17110;52.602;12.998;2022-07-29T01:43:27;8.65;;;4.80;;
30299;SDS011;17110;52.602;12.998;2022-07-29T01:46:01;6.25;;;4.30;;
30299;SDS011;17110;52.602;12.998;2022-07-29T01:48:38;7.78;;;4.38;;
30299;SDS011;17110;52.602;12.998;2022-07-29T01:51:11;6.65;;;4.30;;
30299;SDS011;17110;52.602;12.998;2022-07-29T01:56:42;8.90;;;4.30;;
30299;SDS011;17110;52.602;12.998;2022-07-29T01:59:10;8.68;;;4.00;;
30299;SDS011;17110;52.602;12.998;2022-07-29T02:01:37;9.63;;;5.00;;
30299;SDS011;17110;52.602;12.998;2022-07-29T02:04:06;6.47;;;4.10;;
30299;SDS011;17110;52.602;12.998;2022-07-29T02:06:34;7.32;;;4.00;;
30299;SDS011;17110;52.602;12.998;2022-07-29T02:09:03;7.07;;;4.55;;
30299;SDS011;17110;52.602;12.998;2022-07-29T02:11:31;6.70;;;4.05;;
30299;SDS011;17110;52.602;12.998;2022-07-29T02:14:00;10.10;;;4.43;;
30299;SDS011;17110;52.602;12.998;2022-07-29T02:16:29;7.10;;;3.90;;
30299;SDS011;17110;52.602;12.998;2022-07-29T02:18:57;5.97;;;3.90;;
30299;SDS011;17110;52.602;12.998;2022-07-29T02:21:26;7.60;;;4.32;;
30299;SDS011;17110;52.602;12.998;2022-07-29T02:23:53;6.47;;;3.90;;
30299;SDS011;17110;52.602;12.998;2022-07-29T02:26:20;6.97;;;4.45;;
30299;SDS011;17110;52.602;12.998;2022-07-29T02:28:49;8.88;;;4.15;;
30299;SDS011;17110;52.602;12.998;2022-07-29T02:31:18;7.00;;;4.30;;
30299;SDS011;17110;52.602;12.998;2022-07-29T02:33:49;7.43;;;4.50;;
30299;SDS011;17110;52.602;12.998;2022-07-29T02:36:15;5.67;;;4.23;;
30299;SDS011;17110;52.602;12.998;2022-07-29T02:38:42;5.90;;;4.40;;
30299;SDS011;17110;52.602;12.998;2022-07-29T02:41:26;7.15;;;4.00;;
30299;SDS011;17110;52.602;12.998;2022-07-29T02:44:01;6.10;;;4.03;;
30299;SDS011;17110;52.602;12.998;2022-07-29T02:46:34;5.47;;;4.40;;
30299;SDS011;17110;52.602;12.998;2022-07-29T02:49:25;5.82;;;4.38;;
30299;SDS011;17110;52.602;12.998;2022-07-29T02:52:03;8.63;;;4.25;;
30299;SDS011;17110;52.602;12.998;2022-07-29T02:54:37;7.40;;;4.60;;
30299;SDS011;17110;52.602;12.998;2022-07-29T02:57:22;6.18;;;4.28;;
30299;SDS011;17110;52.602;12.998;2022-07-29T02:59:57;6.60;;;4.30;;
30299;SDS011;17110;52.602;12.998;2022-07-29T03:02:25;7.32;;;3.88;;
30299;SDS011;17110;52.602;12.998;2022-07-29T03:04:53;5.80;;;4.30;;
30299;SDS011;17110;52.602;12.998;2022-07-29T03:07:22;8.07;;;4.40;;
30299;SDS011;17110;52.602;12.998;2022-07-29T03:09:48;8.15;;;4.35;;
30299;SDS011;17110;52.602;12.998;2022-07-29T03:12:15;6.33;;;4.33;;
30299;SDS011;17110;52.602;12.998;2022-07-29T03:14:42;7.80;;;3.85;;
30299;SDS011;17110;52.602;12.998;2022-07-29T03:17:09;5.47;;;4.20;;
30299;SDS011;17110;52.602;12.998;2022-07-29T03:19:35;8.90;;;4.17;;
30299;SDS011;17110;52.602;12.998;2022-07-29T03:22:01;6.90;;;4.60;;
30299;SDS011;17110;52.602;12.998;2022-07-29T03:24:28;10.32;;;4.10;;
30299;SDS011;17110;52.602;12.998;2022-07-29T03:26:58;7.00;;;4.20;;
30299;SDS011;17110;52.602;12.998;2022-07-29T03:29:24;7.27;;;4.70;;
30299;SDS011;17110;52.602;12.998;2022-07-29T03:31:50;6.53;;;4.40;;
30299;SDS011;17110;52.602;12.998;2022-07-29T03:34:16;6.17;;;4.50;;
30299;SDS011;17110;52.602;12.998;2022-07-29T03:36:42;5.90;;;4.00;;
30299;SDS011;17110;52.602;12.998;2022-07-29T03:39:07;8.82;;;4.25;;
30299;SDS011;17110;52.602;12.998;2022-07-29T03:41:35;9.05;;;4.05;;
30299;SDS011;17110;52.602;12.998;2022-07-29T03:44:03;8.02;;;4.00;;
30299;SDS011;17110;52.602;12.998;2022-07-29T03:46:32;5.43;;;3.75;;
30299;SDS011;17110;52.602;12.998;2022-07-29T03:49:00;5.00;;;3.88;;
30299;SDS011;17110;52.602;12.998;2022-07-29T03:51:29;7.03;;;4.18;;
30299;SDS011;17110;52.602;12.998;2022-07-29T03:53:55;5.97;;;3.92;;
30299;SDS011;17110;52.602;12.998;2022-07-29T03:56:21;6.97;;;4.10;;
30299;SDS011;17110;52.602;12.998;2022-07-29T03:58:51;6.50;;;3.90;;
30299;SDS011;17110;52.602;12.998;2022-07-29T04:01:18;6.82;;;3.67;;
30299;SDS011;17110;52.602;12.998;2022-07-29T04:03:45;7.32;;;4.03;;
30299;SDS011;17110;52.602;12.998;2022-07-29T04:06:12;8.60;;;4.00;;
30299;SDS011;17110;52.602;12.998;2022-07-29T04:08:37;5.95;;;4.25;;
30299;SDS011;17110;52.602;12.998;2022-07-29T04:11:03;7.20;;;4.40;;
30299;SDS011;17110;52.602;12.998;2022-07-29T04:13:30;12.55;;;4.22;;
30299;SDS011;17110;52.602;12.998;2022-07-29T04:15:56;7.35;;;4.55;;
30299;SDS011;17110;52.602;12.998;2022-07-29T04:18:22;6.60;;;4.22;;
30299;SDS011;17110;52.602;12.998;2022-07-29T04:20:48;7.32;;;4.22;;
30299;SDS011;17110;52.602;12.998;2022-07-29T04:23:14;4.53;;;3.63;;
30299;SDS011;17110;52.602;12.998;2022-07-29T04:25:40;7.27;;;4.00;;
30299;SDS011;17110;52.602;12.998;2022-07-29T04:28:07;10.87;;;4.20;;
30299;SDS011;17110;52.602;12.998;2022-07-29T04:30:35;8.15;;;4.10;;
30299;SDS011;17110;52.602;12.998;2022-07-29T04:33:02;5.05;;;4.00;;
30299;SDS011;17110;52.602;12.998;2022-07-29T04:35:30;6.80;;;3.78;;
30299;SDS011;17110;52.602;12.998;2022-07-29T04:37:58;4.88;;;3.45;;
30299;SDS011;17110;52.602;12.998;2022-07-29T04:40:23;15.38;;;4.57;;
30299;SDS011;17110;52.602;12.998;2022-07-29T04:42:49;7.40;;;3.87;;
30299;SDS011;17110;52.602;12.998;2022-07-29T04:45:15;7.18;;;3.83;;
30299;SDS011;17110;52.602;12.998;2022-07-29T04:47:40;7.33;;;3.77;;
30299;SDS011;17110;52.602;12.998;2022-07-29T04:50:07;5.20;;;3.42;;
30299;SDS011;17110;52.602;12.998;2022-07-29T04:52:33;6.90;;;3.58;;
30299;SDS011;17110;52.602;12.998;2022-07-29T04:55:00;4.90;;;3.57;;
30299;SDS011;17110;52.602;12.998;2022-07-29T04:57:26;6.22;;;3.53;;
30299;SDS011;17110;52.602;12.998;2022-07-29T04:59:51;5.63;;;3.60;;
30299;SDS011;17110;52.602;12.998;2022-07-29T05:02:17;5.25;;;3.30;;
30299;SDS011;17110;52.602;12.998;2022-07-29T05:04:43;7.40;;;3.70;;
30299;SDS011;17110;52.602;12.998;2022-07-29T05:07:08;6.72;;;3.42;;
30299;SDS011;17110;52.602;12.998;2022-07-29T05:09:34;5.23;;;3.10;;
30299;SDS011;17110;52.602;12.998;2022-07-29T05:12:00;5.43;;;3.22;;
30299;SDS011;17110;52.602;12.998;2022-07-29T05:14:25;7.07;;;3.60;;
30299;SDS011;17110;52.602;12.998;2022-07-29T05:16:51;7.15;;;3.55;;
30299;SDS011;17110;52.602;12.998;2022-07-29T05:19:17;5.88;;;3.63;;
30299;SDS011;17110;52.602;12.998;2022-07-29T05:21:46;32.88;;;6.18;;
30299;SDS011;17110;52.602;12.998;2022-07-29T05:24:12;7.80;;;3.60;;
30299;SDS011;17110;52.602;12.998;2022-07-29T05:26:38;4.22;;;3.22;;
30299;SDS011;17110;52.602;12.998;2022-07-29T05:29:04;7.03;;;3.85;;
30299;SDS011;17110;52.602;12.998;2022-07-29T05:31:30;4.60;;;3.30;;
30299;SDS011;17110;52.602;12.998;2022-07-29T05:33:56;7.30;;;3.70;;
30299;SDS011;17110;52.602;12.998;2022-07-29T05:36:21;4.68;;;3.17;;
30299;SDS011;17110;52.602;12.998;2022-07-29T05:38:47;5.77;;;3.27;;
30299;SDS011;17110;52.602;12.998;2022-07-29T05:41:12;7.05;;;3.70;;
30299;SDS011;17110;52.602;12.998;2022-07-29T05:43:38;4.30;;;3.20;;
30299;SDS011;17110;52.602;12.998;2022-07-29T05:46:04;6.22;;;3.20;;
30299;SDS011;17110;52.602;12.998;2022-07-29T05:48:29;6.63;;;3.23;;
30299;SDS011;17110;52.602;12.998;2022-07-29T05:50:55;5.35;;;2.83;;
30299;SDS011;17110;52.602;12.998;2022-07-29T05:53:20;6.77;;;3.20;;
30299;SDS011;17110;52.602;12.998;2022-07-29T05:55:47;5.47;;;3.22;;
30299;SDS011;17110;52.602;12.998;2022-07-29T05:58:13;4.82;;;2.90;;
30299;SDS011;17110;52.602;12.998;2022-07-29T06:00:38;5.70;;;3.37;;
30299;SDS011;17110;52.602;12.998;2022-07-29T06:03:04;5.68;;;3.10;;
30299;SDS011;17110;52.602;12.998;2022-07-29T06:05:30;8.37;;;3.20;;
30299;SDS011;17110;52.602;12.998;2022-07-29T06:07:56;6.30;;;3.45;;
30299;SDS011;17110;52.602;12.998;2022-07-29T06:10:21;6.28;;;3.38;;
30299;SDS011;17110;52.602;12.998;2022-07-29T06:12:47;5.77;;;3.27;;
30299;SDS011;17110;52.602;12.998;2022-07-29T06:15:13;9.73;;;3.72;;
30299;SDS011;17110;52.602;12.998;2022-07-29T06:17:38;6.77;;;3.33;;
30299;SDS011;17110;52.602;12.998;2022-07-29T06:20:04;6.97;;;3.15;;
30299;SDS011;17110;52.602;12.998;2022-07-29T06:22:30;4.90;;;3.50;;
30299;SDS011;17110;52.602;12.998;2022-07-29T06:24:56;6.13;;;3.17;;
30299;SDS011;17110;52.602;12.998;2022-07-29T06:27:21;5.00;;;2.60;;
30299;SDS011;17110;52.602;12.998;2022-07-29T06:29:47;5.50;;;2.87;;
30299;SDS011;17110;52.602;12.998;2022-07-29T06:32:13;22.20;;;4.18;;
30299;SDS011;17110;52.602;12.998;2022-07-29T06:34:38;6.07;;;2.93;;
30299;SDS011;17110;52.602;12.998;2022-07-29T06:37:08;5.57;;;2.85;;
30299;SDS011;17110;52.602;12.998;2022-07-29T06:39:34;4.90;;;2.85;;
30299;SDS011;17110;52.602;12.998;2022-07-29T06:42:01;8.47;;;2.87;;
30299;SDS011;17110;52.602;12.998;2022-07-29T06:44:28;4.60;;;2.70;;
30299;SDS011;17110;52.602;12.998;2022-07-29T06:46:54;6.83;;;2.70;;
30299;SDS011;17110;52.602;12.998;2022-07-29T06:49:20;6.17;;;2.90;;
30299;SDS011;17110;52.602;12.998;2022-07-29T06:51:46;31.90;;;5.95;;
30299;SDS011;17110;52.602;12.998;2022-07-29T06:54:12;8.82;;;2.88;;
30299;SDS011;17110;52.602;12.998;2022-07-29T06:56:38;10.80;;;3.37;;
30299;SDS011;17110;52.602;12.998;2022-07-29T06:59:10;5.03;;;2.63;;
30299;SDS011;17110;52.602;12.998;2022-07-29T07:01:40;7.45;;;2.83;;
30299;SDS011;17110;52.602;12.998;2022-07-29T07:04:07;5.50;;;2.78;;
30299;SDS011;17110;52.602;12.998;2022-07-29T07:06:35;30.75;;;4.63;;
30299;SDS011;17110;52.602;12.998;2022-07-29T07:09:01;21.25;;;3.60;;
30299;SDS011;17110;52.602;12.998;2022-07-29T07:11:27;6.20;;;2.40;;
30299;SDS011;17110;52.602;12.998;2022-07-29T07:13:53;18.92;;;4.30;;
30299;SDS011;17110;52.602;12.998;2022-07-29T07:16:19;26.15;;;4.22;;
30299;SDS011;17110;52.602;12.998;2022-07-29T07:18:45;5.50;;;2.63;;
30299;SDS011;17110;52.602;12.998;2022-07-29T07:21:11;10.37;;;2.70;;
30299;SDS011;17110;52.602;12.998;2022-07-29T07:23:37;7.68;;;2.42;;
30299;SDS011;17110;52.602;12.998;2022-07-29T07:26:02;6.38;;;2.58;;
30299;SDS011;17110;52.602;12.998;2022-07-29T07:28:30;15.15;;;3.70;;
30299;SDS011;17110;52.602;12.998;2022-07-29T07:30:55;10.50;;;3.03;;
30299;SDS011;17110;52.602;12.998;2022-07-29T07:33:21;6.95;;;2.70;;
30299;SDS011;17110;52.602;12.998;2022-07-29T07:35:46;5.78;;;2.60;;
30299;SDS011;17110;52.602;12.998;2022-07-29T07:38:12;4.40;;;2.13;;
30299;SDS011;17110;52.602;12.998;2022-07-29T07:40:38;9.30;;;2.67;;
30299;SDS011;17110;52.602;12.998;2022-07-29T07:43:04;9.80;;;2.97;;
30299;SDS011;17110;52.602;12.998;2022-07-29T07:45:30;7.17;;;2.60;;
30299;SDS011;17110;52.602;12.998;2022-07-29T07:47:58;22.98;;;4.40;;
30299;SDS011;17110;52.602;12.998;2022-07-29T07:50:23;5.47;;;2.30;;
30299;SDS011;17110;52.602;12.998;2022-07-29T07:52:50;5.18;;;2.38;;
30299;SDS011;17110;52.602;12.998;2022-07-29T07:55:18;7.40;;;2.70;;
30299;SDS011;17110;52.602;12.998;2022-07-29T07:57:44;7.90;;;3.00;;
30299;SDS011;17110;52.602;12.998;2022-07-29T08:00:10;5.97;;;2.55;;
30299;SDS011;17110;52.602;12.998;2022-07-29T08:02:37;6.07;;;2.38;;
30299;SDS011;17110;52.602;12.998;2022-07-29T08:05:04;9.05;;;2.78;;
30299;SDS011;17110;52.602;12.998;2022-07-29T08:07:31;10.20;;;2.90;;
30299;SDS011;17110;52.602;12.998;2022-07-29T08:09:58;32.55;;;4.47;;
30299;SDS011;17110;52.602;12.998;2022-07-29T08:12:24;6.65;;;2.75;;
30299;SDS011;17110;52.602;12.998;2022-07-29T08:14:50;4.70;;;2.20;;
30299;SDS011;17110;52.602;12.998;2022-07-29T08:17:16;6.82;;;2.60;;
30299;SDS011;17110;52.602;12.998;2022-07-29T08:19:41;5.00;;;2.40;;
30299;SDS011;17110;52.602;12.998;2022-07-29T08:22:07;9.63;;;3.07;;
30299;SDS011;17110;52.602;12.998;2022-07-29T08:24:35;10.27;;;2.80;;
30299;SDS011;17110;52.602;12.998;2022-07-29T08:27:17;8.60;;;2.73;;
30299;SDS011;17110;52.602;12.998;2022-07-29T08:29:44;5.85;;;2.58;;
30299;SDS011;17110;52.602;12.998;2022-07-29T08:32:09;7.32;;;2.70;;
30299;SDS011;17110;52.602;12.998;2022-07-29T08:34:35;8.50;;;2.88;;
30299;SDS011;17110;52.602;12.998;2022-07-29T08:37:01;4.93;;;2.23;;
30299;SDS011;17110;52.602;12.998;2022-07-29T08:39:26;6.47;;;2.30;;
30299;SDS011;17110;52.602;12.998;2022-07-29T08:41:52;8.55;;;2.30;;
30299;SDS011;17110;52.602;12.998;2022-07-29T08:44:20;5.57;;;2.80;;
30299;SDS011;17110;52.602;12.998;2022-07-29T08:46:46;6.15;;;2.60;;
30299;SDS011;17110;52.602;12.998;2022-07-29T08:49:12;10.60;;;2.78;;
30299;SDS011;17110;52.602;12.998;2022-07-29T08:51:39;6.60;;;2.22;;
30299;SDS011;17110;52.602;12.998;2022-07-29T08:54:08;13.18;;;3.17;;
30299;SDS011;17110;52.602;12.998;2022-07-29T08:56:34;40.15;;;5.30;;
30299;SDS011;17110;52.602;12.998;2022-07-29T08:59:02;6.23;;;2.20;;
30299;SDS011;17110;52.602;12.998;2022-07-29T09:01:30;3.72;;;1.98;;
30299;SDS011;17110;52.602;12.998;2022-07-29T09:03:57;5.13;;;2.22;;
30299;SDS011;17110;52.602;12.998;2022-07-29T09:06:26;7.22;;;2.00;;
30299;SDS011;17110;52.602;12.998;2022-07-29T09:09:02;5.03;;;2.00;;
30299;SDS011;17110;52.602;12.998;2022-07-29T09:11:54;4.75;;;1.80;;
30299;SDS011;17110;52.602;12.998;2022-07-29T09:14:20;7.67;;;2.13;;
30299;SDS011;17110;52.602;12.998;2022-07-29T09:16:53;24.70;;;3.80;;
30299;SDS011;17110;52.602;12.998;2022-07-29T09:19:25;11.05;;;2.65;;
30299;SDS011;17110;52.602;12.998;2022-07-29T09:22:03;8.70;;;2.10;;
30299;SDS011;17110;52.602;12.998;2022-07-29T09:24:38;3.20;;;2.00;;
30299;SDS011;17110;52.602;12.998;2022-07-29T09:27:09;4.75;;;2.05;;
30299;SDS011;17110;52.602;12.998;2022-07-29T09:29:45;6.05;;;1.88;;
30299;SDS011;17110;52.602;12.998;2022-07-29T09:32:11;4.70;;;1.80;;
30299;SDS011;17110;52.602;12.998;2022-07-29T09:34:37;12.23;;;2.55;;
30299;SDS011;17110;52.602;12.998;2022-07-29T09:37:03;4.83;;;2.10;;
30299;SDS011;17110;52.602;12.998;2022-07-29T09:39:35;14.15;;;2.90;;
30299;SDS011;17110;52.602;12.998;2022-07-29T09:42:04;4.30;;;1.85;;
30299;SDS011;17110;52.602;12.998;2022-07-29T09:44:44;4.97;;;1.90;;
30299;SDS011;17110;52.602;12.998;2022-07-29T09:47:13;8.20;;;2.10;;
30299;SDS011;17110;52.602;12.998;2022-07-29T09:49:51;4.25;;;1.90;;
30299;SDS011;17110;52.602;12.998;2022-07-29T09:52:23;4.63;;;1.92;;
30299;SDS011;17110;52.602;12.998;2022-07-29T09:54:49;6.65;;;2.10;;
30299;SDS011;17110;52.602;12.998;2022-07-29T09:57:27;4.10;;;1.90;;
30299;SDS011;17110;52.602;12.998;2022-07-29T10:02:27;31.08;;;3.22;;
30299;SDS011;17110;52.602;12.998;2022-07-29T10:04:58;4.20;;;2.15;;
30299;SDS011;17110;52.602;12.998;2022-07-29T10:07:24;3.47;;;1.65;;
30299;SDS011;17110;52.602;12.998;2022-07-29T10:09:54;4.60;;;1.63;;
30299;SDS011;17110;52.602;12.998;2022-07-29T10:12:22;14.07;;;2.80;;
30299;SDS011;17110;52.602;12.998;2022-07-29T10:14:49;3.63;;;1.73;;
30299;SDS011;17110;52.602;12.998;2022-07-29T10:17:16;3.78;;;1.30;;
30299;SDS011;17110;52.602;12.998;2022-07-29T10:19:43;4.85;;;1.63;;
30299;SDS011;17110;52.602;12.998;2022-07-29T10:22:10;4.78;;;1.88;;
30299;SDS011;17110;52.602;12.998;2022-07-29T10:24:36;7.15;;;1.92;;
30299;SDS011;17110;52.602;12.998;2022-07-29T10:27:04;11.23;;;2.28;;
30299;SDS011;17110;52.602;12.998;2022-07-29T10:29:32;7.57;;;2.00;;
30299;SDS011;17110;52.602;12.998;2022-07-29T10:32:09;2.53;;;1.50;;
30299;SDS011;17110;52.602;12.998;2022-07-29T10:37:33;4.32;;;1.70;;
30299;SDS011;17110;52.602;12.998;2022-07-29T10:40:32;5.43;;;1.70;;
30299;SDS011;17110;52.602;12.998;2022-07-29T10:43:35;4.03;;;1.60;;
30299;SDS011;17110;52.602;12.998;2022-07-29T10:46:06;2.97;;;1.60;;
30299;SDS011;17110;52.602;12.998;2022-07-29T10:48:32;9.98;;;2.25;;
30299;SDS011;17110;52.602;12.998;2022-07-29T10:50:59;4.20;;;1.75;;
30299;SDS011;17110;52.602;12.998;2022-07-29T10:53:45;4.13;;;1.70;;
30299;SDS011;17110;52.602;12.998;2022-07-29T10:56:23;30.33;;;4.45;;
30299;SDS011;17110;52.602;12.998;2022-07-29T11:01:44;5.18;;;1.67;;
30299;SDS011;17110;52.602;12.998;2022-07-29T11:07:12;5.13;;;1.98;;
30299;SDS011;17110;52.602;12.998;2022-07-29T11:09:38;3.43;;;1.77;;
30299;SDS011;17110;52.602;12.998;2022-07-29T11:12:04;3.50;;;1.90;;
30299;SDS011;17110;52.602;12.998;2022-07-29T11:15:01;5.10;;;2.10;;
30299;SDS011;17110;52.602;12.998;2022-07-29T11:17:27;3.67;;;1.70;;
30299;SDS011;17110;52.602;12.998;2022-07-29T11:22:57;10.95;;;2.45;;
30299;SDS011;17110;52.602;12.998;2022-07-29T11:25:23;11.93;;;2.55;;
30299;SDS011;17110;52.602;12.998;2022-07-29T11:27:49;15.40;;;3.20;;
30299;SDS011;17110;52.602;12.998;2022-07-29T11:30:17;4.43;;;1.67;;
30299;SDS011;17110;52.602;12.998;2022-07-29T11:32:43;3.83;;;1.60;;
30299;SDS011;17110;52.602;12.998;2022-07-29T11:35:16;4.55;;;1.80;;
30299;SDS011;17110;52.602;12.998;2022-07-29T11:37:42;3.78;;;1.73;;
30299;SDS011;17110;52.602;12.998;2022-07-29T11:40:09;4.25;;;1.45;;
30299;SDS011;17110;52.602;12.998;2022-07-29T11:42:37;6.00;;;1.70;;
30299;SDS011;17110;52.602;12.998;2022-07-29T11:50:14;6.72;;;1.88;;
30299;SDS011;17110;52.602;12.998;2022-07-29T11:52:43;7.30;;;1.90;;
30299;SDS011;17110;52.602;12.998;2022-07-29T11:55:15;10.10;;;2.10;;
30299;SDS011;17110;52.602;12.998;2022-07-29T11:57:47;11.48;;;2.85;;
30299;SDS011;17110;52.602;12.998;2022-07-29T12:02:51;9.98;;;2.67;;
30299;SDS011;17110;52.602;12.998;2022-07-29T12:05:19;22.50;;;3.47;;
30299;SDS011;17110;52.602;12.998;2022-07-29T12:07:46;7.80;;;2.05;;
30299;SDS011;17110;52.602;12.998;2022-07-29T12:10:12;8.32;;;2.30;;
30299;SDS011;17110;52.602;12.998;2022-07-29T12:12:39;17.80;;;3.42;;
30299;SDS011;17110;52.602;12.998;2022-07-29T12:15:14;19.67;;;3.50;;
30299;SDS011;17110;52.602;12.998;2022-07-29T12:17:43;5.85;;;2.20;;
30299;SDS011;17110;52.602;12.998;2022-07-29T12:20:09;5.75;;;2.15;;
30299;SDS011;17110;52.602;12.998;2022-07-29T12:22:35;4.50;;;1.83;;
30299;SDS011;17110;52.602;12.998;2022-07-29T12:25:07;4.07;;;1.70;;
30299;SDS011;17110;52.602;12.998;2022-07-29T12:27:34;5.63;;;1.90;;
30299;SDS011;17110;52.602;12.998;2022-07-29T12:32:36;6.57;;;2.22;;
30299;SDS011;17110;52.602;12.998;2022-07-29T12:35:06;5.22;;;2.22;;
30299;SDS011;17110;52.602;12.998;2022-07-29T12:37:34;3.08;;;2.10;;
30299;SDS011;17110;52.602;12.998;2022-07-29T12:40:02;4.40;;;1.90;;
30299;SDS011;17110;52.602;12.998;2022-07-29T12:42:29;4.30;;;1.80;;
30299;SDS011;17110;52.602;12.998;2022-07-29T12:44:55;4.57;;;2.13;;
30299;SDS011;17110;52.602;12.998;2022-07-29T12:47:21;3.50;;;1.90;;
30299;SDS011;17110;52.602;12.998;2022-07-29T12:49:48;6.07;;;2.10;;
30299;SDS011;17110;52.602;12.998;2022-07-29T12:52:31;6.35;;;2.22;;
30299;SDS011;17110;52.602;12.998;2022-07-29T12:54:58;4.30;;;1.77;;
30299;SDS011;17110;52.602;12.998;2022-07-29T12:57:27;3.33;;;2.13;;
30299;SDS011;17110;52.602;12.998;2022-07-29T13:00:09;4.47;;;2.20;;
30299;SDS011;17110;52.602;12.998;2022-07-29T13:02:39;4.20;;;2.00;;
30299;SDS011;17110;52.602;12.998;2022-07-29T13:05:06;3.33;;;2.20;;
30299;SDS011;17110;52.602;12.998;2022-07-29T13:07:34;4.95;;;2.53;;
30299;SDS011;17110;52.602;12.998;2022-07-29T13:10:11;5.47;;;2.40;;
30299;SDS011;17110;52.602;12.998;2022-07-29T13:15:31;3.85;;;2.25;;
30299;SDS011;17110;52.602;12.998;2022-07-29T13:17:57;12.57;;;2.92;;
30299;SDS011;17110;52.602;12.998;2022-07-29T13:20:24;6.85;;;2.70;;
30299;SDS011;17110;52.602;12.998;2022-07-29T13:22:52;5.13;;;2.47;;
30299;SDS011;17110;52.602;12.998;2022-07-29T13:25:25;7.95;;;2.78;;
30299;SDS011;17110;52.602;12.998;2022-07-29T13:27:53;4.63;;;2.47;;
30299;SDS011;17110;52.602;12.998;2022-07-29T13:30:19;3.53;;;2.30;;
30299;SDS011;17110;52.602;12.998;2022-07-29T13:32:46;5.35;;;2.47;;
30299;SDS011;17110;52.602;12.998;2022-07-29T13:35:12;4.43;;;2.10;;
30299;SDS011;17110;52.602;12.998;2022-07-29T13:37:38;5.68;;;2.25;;
30299;SDS011;17110;52.602;12.998;2022-07-29T13:40:05;4.07;;;2.03;;
30299;SDS011;17110;52.602;12.998;2022-07-29T13:42:33;4.47;;;2.20;;
30299;SDS011;17110;52.602;12.998;2022-07-29T13:45:01;25.08;;;4.13;;
30299;SDS011;17110;52.602;12.998;2022-07-29T13:47:27;4.28;;;2.33;;
30299;SDS011;17110;52.602;12.998;2022-07-29T13:49:53;5.13;;;2.53;;
30299;SDS011;17110;52.602;12.998;2022-07-29T13:52:20;29.63;;;5.10;;
30299;SDS011;17110;52.602;12.998;2022-07-29T13:54:45;8.13;;;2.90;;
30299;SDS011;17110;52.602;12.998;2022-07-29T13:57:11;4.68;;;2.50;;
30299;SDS011;17110;52.602;12.998;2022-07-29T13:59:38;6.00;;;2.53;;
30299;SDS011;17110;52.602;12.998;2022-07-29T14:02:05;5.60;;;2.72;;
30299;SDS011;17110;52.602;12.998;2022-07-29T14:04:31;13.40;;;3.30;;
30299;SDS011;17110;52.602;12.998;2022-07-29T14:06:58;3.92;;;2.30;;
30299;SDS011;17110;52.602;12.998;2022-07-29T14:09:24;5.10;;;2.40;;
30299;SDS011;17110;52.602;12.998;2022-07-29T14:11:49;2.97;;;2.33;;
30299;SDS011;17110;52.602;12.998;2022-07-29T14:14:16;5.65;;;2.47;;
30299;SDS011;17110;52.602;12.998;2022-07-29T14:16:42;11.10;;;3.25;;
30299;SDS011;17110;52.602;12.998;2022-07-29T14:19:07;4.53;;;2.37;;
30299;SDS011;17110;52.602;12.998;2022-07-29T14:21:36;4.67;;;2.37;;
30299;SDS011;17110;52.602;12.998;2022-07-29T14:24:06;7.05;;;2.63;;
30299;SDS011;17110;52.602;12.998;2022-07-29T14:26:32;4.68;;;2.30;;
30299;SDS011;17110;52.602;12.998;2022-07-29T14:28:57;6.67;;;2.93;;
30299;SDS011;17110;52.602;12.998;2022-07-29T14:31:23;13.45;;;3.40;;
30299;SDS011;17110;52.602;12.998;2022-07-29T14:33:49;4.68;;;2.30;;
30299;SDS011;17110;52.602;12.998;2022-07-29T14:36:15;3.83;;;2.20;;
30299;SDS011;17110;52.602;12.998;2022-07-29T14:38:44;18.90;;;3.75;;
30299;SDS011;17110;52.602;12.998;2022-07-29T14:41:09;4.82;;;2.40;;
30299;SDS011;17110;52.602;12.998;2022-07-29T14:43:35;6.57;;;2.75;;
30299;SDS011;17110;52.602;12.998;2022-07-29T14:46:02;4.20;;;2.35;;
30299;SDS011;17110;52.602;12.998;2022-07-29T14:48:28;4.13;;;2.30;;
30299;SDS011;17110;52.602;12.998;2022-07-29T14:50:53;3.50;;;2.40;;
30299;SDS011;17110;52.602;12.998;2022-07-29T14:53:21;5.63;;;2.80;;
30299;SDS011;17110;52.602;12.998;2022-07-29T14:55:47;7.20;;;2.90;;
30299;SDS011;17110;52.602;12.998;2022-07-29T14:58:13;6.35;;;2.35;;
30299;SDS011;17110;52.602;12.998;2022-07-29T15:00:39;4.80;;;2.50;;
30299;SDS011;17110;52.602;12.998;2022-07-29T15:03:04;4.40;;;2.80;;
30299;SDS011;17110;52.602;12.998;2022-07-29T15:05:31;8.98;;;2.75;;
30299;SDS011;17110;52.602;12.998;2022-07-29T15:07:57;9.70;;;3.00;;
30299;SDS011;17110;52.602;12.998;2022-07-29T15:10:24;6.95;;;2.50;;
30299;SDS011;17110;52.602;12.998;2022-07-29T15:12:52;5.93;;;2.72;;
30299;SDS011;17110;52.602;12.998;2022-07-29T15:15:17;4.00;;;2.70;;
30299;SDS011;17110;52.602;12.998;2022-07-29T15:17:43;5.10;;;2.60;;
30299;SDS011;17110;52.602;12.998;2022-07-29T15:20:09;4.93;;;2.30;;
30299;SDS011;17110;52.602;12.998;2022-07-29T15:22:36;11.13;;;2.60;;